This is the latest recevied weather packets stored in our database for station/object WW5JC. If no packets are shown the sender has not sent any weather packets the latest 10 day(s).
| Time | Temp. | Humidity | Pressure | Rain* | Wind** | Luminosity | Snow |
|---|---|---|---|---|---|---|---|
| 1788588906 | 26.67° C | 74% | 1015.8 hPa | 0 mm | - | 0 W/m² | - |
| 1788588301 | 27.22° C | 74% | 1015.6 hPa | 0 mm | - | 0 W/m² | - |
| 1788587700 | 27.22° C | 73% | 1015.6 hPa | 0 mm | - | 0 W/m² | - |
| 1788587400 | 27.22° C | 73% | 1015.6 hPa | 0 mm | - | 0 W/m² | - |
| 1788584359 | 27.78° C | 71% | 1015.5 hPa | 0 mm | - | 0 W/m² | - |
| 1788564600 | 35.56° C | 44% | 1013.6 hPa | 0 mm | - | 76 W/m² | - |
| 1788560960 | 36.11° C | 45% | 1013.6 hPa | 0 mm | - | 230 W/m² | - |
| 1788560655 | 36.11° C | 45% | 1013.6 hPa | 0 mm | - | 244 W/m² | - |
| 1788560049 | 35° C | 47% | 1013.6 hPa | 0 mm | - | 90 W/m² | - |
| 1788557614 | 35.56° C | 47% | 1014 hPa | 0 mm | - | 222 W/m² | - |
| 1788557310 | 36.11° C | 46% | 1014.1 hPa | 0 mm | - | 94 W/m² | - |
| 1788556400 | 36.67° C | 45% | 1014 hPa | 0 mm | - | 457 W/m² | - |
| 1788553051 | 36.11° C | 46% | 1014.7 hPa | 0 mm | - | 574 W/m² | - |
| 1788552441 | 36.11° C | 46% | 1015.2 hPa | 0 mm | - | 606 W/m² | - |
| 1788550314 | 35.56° C | 49% | 1015.7 hPa | 0 mm | - | 176 W/m² | - |
| 1788549096 | 34.44° C | 51% | 1015.6 hPa | 0 mm | - | 153 W/m² | - |
| 1788548792 | 35° C | 50% | 1015.8 hPa | 0 mm | - | 172 W/m² | - |
| 1788547884 | 33.89° C | 52% | 1016 hPa | 0 mm | - | 736 W/m² | - |
| 1788546974 | 35° C | 51% | 1016.2 hPa | 0 mm | - | 633 W/m² | - |
| 1788546669 | 35° C | 52% | 1016.4 hPa | 0 mm | - | 691 W/m² | - |
| 1788546064 | 35° C | 51% | 1016.4 hPa | 0 mm | - | 695 W/m² | - |
| 1788545761 | 34.44° C | 51% | 1016.6 hPa | 0 mm | - | 695 W/m² | - |
| 1788545461 | 35° C | 52% | 1016.5 hPa | 0 mm | - | 707 W/m² | - |
| 1788544550 | 34.44° C | 52% | 1016.8 hPa | 0 mm | - | 705 W/m² | - |
| 1788544248 | 33.89° C | 55% | 1016.8 hPa | 0 mm | - | 695 W/m² | - |
* Rain latest hour (hover to see other rain measurements)
** Current wind speed in m/s (hover to see current wind gust speed)